Time;durP1;ratioP1;P1;durP2;ratioP2;P2;SDS_P1;SDS_P2;PMS_P1;PMS_P2;Temp;Humidity;BMP_temperature;BMP_pressure;BME280_temperature;BME280_humidity;BME280_pressure;Samples;Min_cycle;Max_cycle;Signal;HPM_P1;HPM_P2
2022/10/12 00:02:00;;;;;;;;;;;;;;;;;;5008159;28;19913;-73
2022/10/12 00:04:25;;;;;;;;;;;;;;;;;;5013529;28;19917;-73
2022/10/12 00:06:50;;;;;;;;;;;;;;;;;;5012607;28;19924;-73
2022/10/12 00:09:15;;;;;;;;;;;;;;;;;;5011815;28;19913;-73
2022/10/12 00:11:41;;;;;;;;;;;;;;;;;;5011001;28;19971;-73
2022/10/12 00:14:06;;;;;;;;;;;;;;;;;;4999163;28;20343;-73
2022/10/12 00:16:31;;;;;;;;;;;;;;;;;;4998117;28;19918;-73
2022/10/12 00:18:56;;;;;;;;;;;;;;;;;;5009338;28;19996;-73
2022/10/12 00:21:21;;;;;;;;;;;;;;;;;;5011141;28;20024;-73
2022/10/12 00:23:46;;;;;;;;;;;;;;;;;;5005060;28;19971;-73
2022/10/12 00:26:11;;;;;;;;;;;;;;;;;;5016716;28;19921;-73
2022/10/12 00:28:36;;;;;;;;;;;;;;;;;;5011530;28;20259;-73
2022/10/12 00:31:01;;;;;;;;;;;;;;;;;;5014281;28;20480;-73
2022/10/12 00:33:27;;;;;;;;;;;;;;;;;;5014410;28;19992;-73
2022/10/12 00:35:53;;;;;;;;;;;;;;;;;;5015004;28;19958;-73
2022/10/12 00:38:18;;;;;;;;;;;;;;;;;;5011165;28;19917;-73
2022/10/12 00:40:44;;;;;;;;;;;;;;;;;;5011728;28;20000;-73
2022/10/12 00:43:09;;;;;;;;;;;;;;;;;;5010077;28;20405;-73
2022/10/12 00:45:34;;;;;;;;;;;;;;;;;;4999813;28;20294;-73
2022/10/12 00:47:59;;;;;;;;;;;;;;;;;;5009865;28;20362;-73
2022/10/12 00:50:24;;;;;;;;;;;;;;;;;;5009763;28;19921;-73
2022/10/12 00:52:49;;;;;;;;;;;;;;;;;;5003922;28;20390;-73
2022/10/12 00:55:14;;;;;;;;;;;;;;;;;;5012481;28;19920;-73
2022/10/12 00:57:39;;;;;;;;;;;;;;;;;;5010549;28;19976;-73
2022/10/12 01:00:05;;;;;;;;;;;;;;;;;;5011257;28;19913;-73
2022/10/12 01:02:30;;;;;;;;;;;;;;;;;;5011983;28;19964;-73
2022/10/12 01:04:55;;;;;;;;;;;;;;;;;;5000700;28;19928;-73
2022/10/12 01:07:20;;;;;;;;;;;;;;;;;;5011821;28;20004;-73
2022/10/12 01:09:45;;;;;;;;;;;;;;;;;;5010540;28;20353;-73
2022/10/12 01:12:10;;;;;;;;;;;;;;;;;;5011285;28;19940;-73
2022/10/12 01:14:35;;;;;;;;;;;;;;;;;;5011059;28;19910;-73
2022/10/12 01:17:00;;;;;;;;;;;;;;;;;;5006866;28;19920;-73
2022/10/12 01:19:26;;;;;;;;;;;;;;;;;;5014049;28;19913;-73
2022/10/12 01:21:51;;;;;;;;;;;;;;;;;;5011057;28;19914;-73
2022/10/12 01:24:16;;;;;;;;;;;;;;;;;;5010078;28;19921;-73
2022/10/12 01:26:41;;;;;;;;;;;;;;;;;;5010166;28;19917;-73
2022/10/12 01:29:06;;;;;;;;;;;;;;;;;;5007452;28;19959;-73
2022/10/12 01:31:31;;;;;;;;;;;;;;;;;;5006032;28;19917;-73
2022/10/12 01:33:56;;;;;;;;;;;;;;;;;;5015830;28;19914;-73
2022/10/12 01:36:21;;;;;;;;;;;;;;;;;;5011910;28;20423;-73
2022/10/12 01:38:47;;;;;;;;;;;;;;;;;;5010572;28;19921;-73
2022/10/12 01:41:12;;;;;;;;;;;;;;;;;;5020890;28;20007;-73
2022/10/12 01:43:37;;;;;;;;;;;;;;;;;;5013080;28;20370;-73
2022/10/12 01:46:02;;;;;;;;;;;;;;;;;;5009194;28;19925;-73
2022/10/12 01:48:27;;;;;;;;;;;;;;;;;;5013357;28;19913;-73
2022/10/12 01:50:52;;;;;;;;;;;;;;;;;;5015378;28;19925;-73
2022/10/12 01:53:17;;;;;;;;;;;;;;;;;;5013860;28;19914;-73
2022/10/12 01:55:42;;;;;;;;;;;;;;;;;;5014349;28;19933;-73
2022/10/12 01:58:07;;;;;;;;;;;;;;;;;;4999527;28;19914;-73
2022/10/12 02:00:33;;;;;;;;;;;;;;;;;;5011924;28;19918;-73
2022/10/12 02:02:58;;;;;;;;;;;;;;;;;;5022859;28;20290;-73
2022/10/12 02:05:23;;;;;;;;;;;;;;;;;;5018619;28;20365;-73
2022/10/12 02:07:48;;;;;;;;;;;;;;;;;;5004840;28;20377;-73
2022/10/12 02:10:13;;;;;;;;;;;;;;;;;;5012766;28;19913;-73
2022/10/12 02:12:38;;;;;;;;;;;;;;;;;;5014532;28;20020;-73
2022/10/12 02:15:03;;;;;;;;;;;;;;;;;;5011305;28;20004;-73
2022/10/12 02:17:31;;;;;;;;;;;;;;;;;;4999096;28;20302;-73
2022/10/12 02:19:56;;;;;;;;;;;;;;;;;;5014428;28;19917;-73
2022/10/12 02:22:21;;;;;;;;;;;;;;;;;;5017110;28;20853;-73
2022/10/12 02:24:46;;;;;;;;;;;;;;;;;;5018572;28;19920;-73
2022/10/12 02:27:11;;;;;;;;;;;;;;;;;;5013445;28;20020;-73
2022/10/12 02:29:36;;;;;;;;;;;;;;;;;;5013461;28;20015;-73
2022/10/12 02:32:01;;;;;;;;;;;;;;;;;;5003478;28;19960;-73
2022/10/12 02:34:26;;;;;;;;;;;;;;;;;;5003166;28;19936;-73
2022/10/12 02:36:52;;;;;;;;;;;;;;;;;;5005372;28;19921;-73
2022/10/12 02:39:17;;;;;;;;;;;;;;;;;;5014705;28;19923;-73
2022/10/12 02:41:42;;;;;;;;;;;;;;;;;;5008245;28;19921;-72
2022/10/12 02:44:07;;;;;;;;;;;;;;;;;;5009908;28;20293;-72
2022/10/12 02:46:32;;;;;;;;;;;;;;;;;;5011588;28;20012;-72
2022/10/12 02:48:58;;;;;;;;;;;;;;;;;;5011216;28;20018;-72
2022/10/12 02:51:23;;;;;;;;;;;;;;;;;;5012875;28;19913;-72
2022/10/12 02:53:48;;;;;;;;;;;;;;;;;;5018717;28;19913;-73
2022/10/12 02:56:13;;;;;;;;;;;;;;;;;;5013807;28;19924;-73
2022/10/12 02:58:38;;;;;;;;;;;;;;;;;;5008014;28;19913;-73
2022/10/12 03:01:03;;;;;;;;;;;;;;;;;;5015208;28;20000;-73
2022/10/12 03:03:28;;;;;;;;;;;;;;;;;;5015779;28;20382;-73
2022/10/12 03:05:53;;;;;;;;;;;;;;;;;;5023873;28;19917;-73
2022/10/12 03:08:18;;;;;;;;;;;;;;;;;;5022849;28;19913;-73
2022/10/12 03:10:44;;;;;;;;;;;;;;;;;;5011169;28;19960;-73
2022/10/12 03:13:09;;;;;;;;;;;;;;;;;;5003077;28;19917;-73
2022/10/12 03:15:34;;;;;;;;;;;;;;;;;;5009072;28;20331;-73
2022/10/12 03:17:59;;;;;;;;;;;;;;;;;;5033039;28;20321;-73
2022/10/12 03:20:24;;;;;;;;;;;;;;;;;;5028009;28;20427;-73
2022/10/12 03:22:49;;;;;;;;;;;;;;;;;;5013259;28;20352;-73
2022/10/12 03:25:14;;;;;;;;;;;;;;;;;;5016435;28;19917;-73
2022/10/12 03:27:39;;;;;;;;;;;;;;;;;;5022375;28;19913;-73
2022/10/12 03:30:04;;;;;;;;;;;;;;;;;;5020316;28;19967;-73
2022/10/12 03:32:30;;;;;;;;;;;;;;;;;;5022685;28;19913;-73
2022/10/12 03:34:55;;;;;;;;;;;;;;;;;;5016432;28;19983;-73
2022/10/12 03:37:20;;;;;;;;;;;;;;;;;;5013038;28;20365;-73
2022/10/12 03:39:45;;;;;;;;;;;;;;;;;;5007923;28;19914;-73
2022/10/12 03:42:10;;;;;;;;;;;;;;;;;;5006514;28;19922;-73
2022/10/12 03:44:36;;;;;;;;;;;;;;;;;;5018684;28;20354;-73
2022/10/12 03:47:01;;;;;;;;;;;;;;;;;;5009631;28;19929;-73
2022/10/12 03:49:26;;;;;;;;;;;;;;;;;;5019074;28;19921;-73
2022/10/12 03:51:51;;;;;;;;;;;;;;;;;;5014832;28;20389;-73
2022/10/12 03:54:16;;;;;;;;;;;;;;;;;;5000926;28;20405;-73
2022/10/12 03:56:41;;;;;;;;;;;;;;;;;;5007830;28;20056;-73
2022/10/12 03:59:06;;;;;;;;;;;;;;;;;;5006330;28;20047;-73
2022/10/12 04:01:31;;;;;;;;;;;;;;;;;;5017039;28;19920;-73
2022/10/12 04:03:57;;;;;;;;;;;;;;;;;;5024226;28;20011;-73
2022/10/12 04:06:22;;;;;;;;;;;;;;;;;;5012722;28;19936;-73
2022/10/12 04:08:47;;;;;;;;;;;;;;;;;;5011820;28;19913;-73
2022/10/12 04:11:12;;;;;;;;;;;;;;;;;;5016108;28;19917;-73
2022/10/12 04:13:37;;;;;;;;;;;;;;;;;;5010430;28;19914;-71
2022/10/12 04:16:02;;;;;;;;;;;;;;;;;;5012491;28;19921;-71
2022/10/12 04:18:27;;;;;;;;;;;;;;;;;;5019079;28;19952;-71
2022/10/12 04:20:52;;;;;;;;;;;;;;;;;;5019595;28;19924;-72
2022/10/12 04:23:17;;;;;;;;;;;;;;;;;;5017526;28;19917;-72
2022/10/12 04:25:43;;;;;;;;;;;;;;;;;;5010794;28;20293;-72
2022/10/12 04:28:08;;;;;;;;;;;;;;;;;;5032790;28;20285;-71
2022/10/12 04:30:33;;;;;;;;;;;;;;;;;;5004462;28;20452;-71
2022/10/12 04:32:58;;;;;;;;;;;;;;;;;;5003226;28;20009;-71
2022/10/12 04:35:23;;;;;;;;;;;;;;;;;;5016953;28;20385;-71
2022/10/12 04:37:48;;;;;;;;;;;;;;;;;;5008710;28;19932;-71
2022/10/12 04:40:13;;;;;;;;;;;;;;;;;;5028517;28;20003;-71
2022/10/12 04:42:38;;;;;;;;;;;;;;;;;;5005511;28;19914;-71
2022/10/12 04:45:04;;;;;;;;;;;;;;;;;;5014081;28;19949;-71
2022/10/12 04:47:29;;;;;;;;;;;;;;;;;;5006347;28;19917;-71
2022/10/12 04:49:54;;;;;;;;;;;;;;;;;;5010366;28;20431;-71
2022/10/12 04:52:19;;;;;;;;;;;;;;;;;;5009003;28;19914;-71
2022/10/12 04:54:44;;;;;;;;;;;;;;;;;;5013182;28;20381;-71
2022/10/12 04:57:09;;;;;;;;;;;;;;;;;;5010460;28;20397;-71
2022/10/12 04:59:34;;;;;;;;;;;;;;;;;;5010087;28;19917;-71
2022/10/12 05:02:00;;;;;;;;;;;;;;;;;;5008939;28;19917;-72
2022/10/12 05:04:25;;;;;;;;;;;;;;;;;;5016805;28;19913;-71
2022/10/12 05:06:50;;;;;;;;;;;;;;;;;;5020484;28;19921;-71
2022/10/12 05:09:15;;;;;;;;;;;;;;;;;;5012788;28;19913;-71
2022/10/12 05:11:40;;;;;;;;;;;;;;;;;;5010934;28;20274;-71
2022/10/12 05:14:05;;;;;;;;;;;;;;;;;;5011154;28;20402;-71
2022/10/12 05:16:30;;;;;;;;;;;;;;;;;;5008852;28;19917;-71
2022/10/12 05:18:55;;;;;;;;;;;;;;;;;;5009932;28;19913;-71
2022/10/12 05:21:21;;;;;;;;;;;;;;;;;;5016522;28;19920;-71
2022/10/12 05:23:46;;;;;;;;;;;;;;;;;;5010849;28;20008;-71
2022/10/12 05:26:11;;;;;;;;;;;;;;;;;;5003419;28;20013;-71
2022/10/12 05:28:36;;;;;;;;;;;;;;;;;;5014811;28;19956;-71
2022/10/12 05:31:01;;;;;;;;;;;;;;;;;;5007373;28;19914;-71
2022/10/12 05:33:26;;;;;;;;;;;;;;;;;;5001908;28;19932;-71
2022/10/12 05:35:51;;;;;;;;;;;;;;;;;;5012619;28;19920;-71
2022/10/12 05:38:17;;;;;;;;;;;;;;;;;;5017846;28;19916;-71
2022/10/12 05:40:43;;;;;;;;;;;;;;;;;;5017509;28;19921;-71
2022/10/12 05:43:08;;;;;;;;;;;;;;;;;;4995298;28;19914;-71
2022/10/12 05:45:33;;;;;;;;;;;;;;;;;;5015477;28;19917;-71
2022/10/12 05:47:58;;;;;;;;;;;;;;;;;;5027090;28;19913;-71
2022/10/12 05:50:23;;;;;;;;;;;;;;;;;;5009130;28;19914;-71
2022/10/12 05:52:48;;;;;;;;;;;;;;;;;;5011345;28;20012;-71
2022/10/12 05:55:13;;;;;;;;;;;;;;;;;;4998915;28;19954;-71
2022/10/12 05:57:38;;;;;;;;;;;;;;;;;;4992699;28;19958;-71
2022/10/12 06:00:03;;;;;;;;;;;;;;;;;;5004111;28;19917;-71
2022/10/12 06:02:28;;;;;;;;;;;;;;;;;;5024862;28;19917;-71
2022/10/12 06:04:54;;;;;;;;;;;;;;;;;;5022938;28;20316;-71
2022/10/12 06:07:19;;;;;;;;;;;;;;;;;;5030499;28;19980;-72
2022/10/12 06:09:44;;;;;;;;;;;;;;;;;;5020692;28;20286;-71
2022/10/12 06:12:09;;;;;;;;;;;;;;;;;;5017238;28;19932;-71
2022/10/12 06:14:34;;;;;;;;;;;;;;;;;;5003986;28;19921;-72
2022/10/12 06:16:59;;;;;;;;;;;;;;;;;;5010917;28;19965;-72
2022/10/12 06:19:24;;;;;;;;;;;;;;;;;;5016181;28;19913;-72
2022/10/12 06:21:49;;;;;;;;;;;;;;;;;;5017158;28;19984;-71
2022/10/12 06:24:14;;;;;;;;;;;;;;;;;;5025021;28;20277;-71
2022/10/12 06:26:40;;;;;;;;;;;;;;;;;;5008035;28;20468;-71
2022/10/12 06:29:05;;;;;;;;;;;;;;;;;;5010442;28;19918;-70
2022/10/12 06:31:31;;;;;;;;;;;;;;;;;;5008605;28;20004;-71
2022/10/12 06:33:56;;;;;;;;;;;;;;;;;;5003514;28;19921;-71
2022/10/12 06:36:22;;;;;;;;;;;;;;;;;;5012731;28;20044;-71
2022/10/12 06:38:47;;;;;;;;;;;;;;;;;;5005586;28;20456;-71
2022/10/12 06:41:12;;;;;;;;;;;;;;;;;;5031871;28;20004;-71
2022/10/12 06:43:37;;;;;;;;;;;;;;;;;;5031508;28;19913;-71
2022/10/12 06:46:02;;;;;;;;;;;;;;;;;;5032352;28;19972;-73
2022/10/12 06:48:28;;;;;;;;;;;;;;;;;;5025793;28;19914;-73
2022/10/12 06:50:53;;;;;;;;;;;;;;;;;;5025595;28;19976;-71
2022/10/12 06:53:18;;;;;;;;;;;;;;;;;;5034725;28;19910;-71
2022/10/12 06:55:43;;;;;;;;;;;;;;;;;;5032848;28;19914;-71
2022/10/12 06:58:08;;;;;;;;;;;;;;;;;;5034660;28;19948;-71
2022/10/12 07:00:33;;;;;;;;;;;;;;;;;;5033839;28;19928;-71
2022/10/12 07:02:58;;;;;;;;;;;;;;;;;;5018778;28;19909;-71
2022/10/12 07:05:24;;;;;;;;;;;;;;;;;;5029394;28;19971;-71
2022/10/12 07:07:49;;;;;;;;;;;;;;;;;;5029664;28;19944;-71
2022/10/12 07:10:14;;;;;;;;;;;;;;;;;;5015776;28;19972;-72
2022/10/12 07:12:39;;;;;;;;;;;;;;;;;;5024044;28;20406;-71
2022/10/12 07:15:04;;;;;;;;;;;;;;;;;;5033440;28;19913;-71
2022/10/12 07:17:29;;;;;;;;;;;;;;;;;;5030519;28;19920;-71
2022/10/12 07:19:54;;;;;;;;;;;;;;;;;;5033085;28;19914;-71
2022/10/12 07:22:19;;;;;;;;;;;;;;;;;;5028180;28;19921;-71
2022/10/12 07:24:45;;;;;;;;;;;;;;;;;;5029106;28;19918;-72
2022/10/12 07:27:10;;;;;;;;;;;;;;;;;;5031899;28;19963;-72
2022/10/12 07:29:35;;;;;;;;;;;;;;;;;;5033448;28;19948;-72
2022/10/12 07:32:00;;;;;;;;;;;;;;;;;;5033571;28;20395;-72
2022/10/12 07:34:25;;;;;;;;;;;;;;;;;;5033458;28;20003;-72
2022/10/12 07:36:50;;;;;;;;;;;;;;;;;;5034053;28;20288;-72
2022/10/12 07:39:15;;;;;;;;;;;;;;;;;;5023715;28;20289;-72
2022/10/12 07:41:41;;;;;;;;;;;;;;;;;;5033927;28;20300;-72
2022/10/12 07:44:06;;;;;;;;;;;;;;;;;;5033268;28;20404;-72
2022/10/12 07:46:31;;;;;;;;;;;;;;;;;;5034002;28;19913;-72
2022/10/12 07:48:56;;;;;;;;;;;;;;;;;;5021093;28;19913;-72
2022/10/12 07:51:21;;;;;;;;;;;;;;;;;;5034028;28;20000;-72
2022/10/12 07:53:46;;;;;;;;;;;;;;;;;;5025108;28;19940;-72
2022/10/12 07:56:14;;;;;;;;;;;;;;;;;;5032891;28;20312;-72
2022/10/12 07:58:39;;;;;;;;;;;;;;;;;;5033148;28;19913;-72
2022/10/12 08:01:04;;;;;;;;;;;;;;;;;;5029915;28;19913;-72
2022/10/12 08:03:29;;;;;;;;;;;;;;;;;;5032633;28;19920;-72
2022/10/12 08:05:54;;;;;;;;;;;;;;;;;;5032185;28;19924;-73
2022/10/12 08:08:19;;;;;;;;;;;;;;;;;;5020899;28;19918;-73
2022/10/12 08:10:44;;;;;;;;;;;;;;;;;;5025868;28;19948;-72
2022/10/12 08:13:09;;;;;;;;;;;;;;;;;;5032039;28;19917;-72
2022/10/12 08:15:35;;;;;;;;;;;;;;;;;;5032187;28;19924;-72
2022/10/12 08:18:00;;;;;;;;;;;;;;;;;;5023023;28;19957;-72
2022/10/12 08:20:25;;;;;;;;;;;;;;;;;;5030451;28;19917;-72
2022/10/12 08:22:50;;;;;;;;;;;;;;;;;;5026123;28;19917;-72
2022/10/12 08:25:15;;;;;;;;;;;;;;;;;;5013390;28;19921;-72
2022/10/12 08:27:40;;;;;;;;;;;;;;;;;;5025844;28;19913;-72
2022/10/12 08:30:05;;;;;;;;;;;;;;;;;;5018114;28;19914;-72
2022/10/12 08:32:30;;;;;;;;;;;;;;;;;;5014793;28;19910;-72
2022/10/12 08:34:55;;;;;;;;;;;;;;;;;;5031436;28;20012;-72
2022/10/12 08:37:20;;;;;;;;;;;;;;;;;;5032213;28;19948;-72
2022/10/12 08:39:46;;;;;;;;;;;;;;;;;;5017789;28;20024;-72
2022/10/12 08:42:11;;;;;;;;;;;;;;;;;;5023305;28;20713;-72
2022/10/12 08:44:36;;;;;;;;;;;;;;;;;;5032023;28;19913;-72
2022/10/12 08:47:01;;;;;;;;;;;;;;;;;;5032378;28;19982;-72
2022/10/12 08:49:26;;;;;;;;;;;;;;;;;;5028479;28;19917;-72
2022/10/12 08:51:51;;;;;;;;;;;;;;;;;;5028218;28;19913;-72
2022/10/12 08:54:16;;;;;;;;;;;;;;;;;;5031672;28;19913;-72
2022/10/12 08:56:42;;;;;;;;;;;;;;;;;;5028581;28;19944;-72
2022/10/12 08:59:07;;;;;;;;;;;;;;;;;;5031535;28;20333;-72
2022/10/12 09:01:36;;;;;;;;;;;;;;;;;;5031332;28;19917;-72
2022/10/12 09:04:01;;;;;;;;;;;;;;;;;;5022769;28;19954;-73
2022/10/12 09:06:26;;;;;;;;;;;;;;;;;;5029446;28;19921;-72
2022/10/12 09:08:51;;;;;;;;;;;;;;;;;;5011476;28;19984;-72
2022/10/12 09:11:16;;;;;;;;;;;;;;;;;;5012603;28;20379;-72
2022/10/12 09:13:41;;;;;;;;;;;;;;;;;;5026275;28;20513;-72
2022/10/12 09:16:06;;;;;;;;;;;;;;;;;;5030353;28;20332;-72
2022/10/12 09:18:31;;;;;;;;;;;;;;;;;;5031397;28;20365;-72
2022/10/12 09:20:56;;;;;;;;;;;;;;;;;;5030905;28;19963;-72
2022/10/12 09:23:22;;;;;;;;;;;;;;;;;;5030610;28;19925;-73
2022/10/12 09:25:49;;;;;;;;;;;;;;;;;;5024967;28;19944;-72
2022/10/12 09:28:14;;;;;;;;;;;;;;;;;;5031106;28;19913;-72
2022/10/12 09:30:39;;;;;;;;;;;;;;;;;;5031304;28;19960;-73
2022/10/12 09:33:04;;;;;;;;;;;;;;;;;;5030871;28;19913;-73
2022/10/12 09:35:29;;;;;;;;;;;;;;;;;;5027781;28;19951;-72
2022/10/12 09:37:54;;;;;;;;;;;;;;;;;;5028509;28;19921;-72
2022/10/12 09:40:19;;;;;;;;;;;;;;;;;;5023488;28;19921;-72
2022/10/12 09:42:45;;;;;;;;;;;;;;;;;;5016567;28;19913;-73
2022/10/12 09:45:10;;;;;;;;;;;;;;;;;;5025720;28;19909;-73
2022/10/12 09:47:35;;;;;;;;;;;;;;;;;;5027837;28;19917;-73
2022/10/12 09:50:01;;;;;;;;;;;;;;;;;;5028173;28;20007;-72
2022/10/12 09:52:26;;;;;;;;;;;;;;;;;;5028092;28;19945;-72
2022/10/12 09:54:51;;;;;;;;;;;;;;;;;;5027792;28;19920;-72
2022/10/12 09:57:16;;;;;;;;;;;;;;;;;;5025208;28;19913;-72
2022/10/12 09:59:41;;;;;;;;;;;;;;;;;;5030738;28;19916;-72
2022/10/12 10:02:06;;;;;;;;;;;;;;;;;;5035130;28;20281;-72
2022/10/12 10:04:31;;;;;;;;;;;;;;;;;;5033186;28;20297;-72
2022/10/12 10:06:56;;;;;;;;;;;;;;;;;;5034722;28;19914;-72
2022/10/12 10:09:21;;;;;;;;;;;;;;;;;;5025649;28;19948;-71
2022/10/12 10:11:47;;;;;;;;;;;;;;;;;;5027412;28;19964;-72
2022/10/12 10:14:12;;;;;;;;;;;;;;;;;;5025561;28;20292;-72
2022/10/12 10:16:37;;;;;;;;;;;;;;;;;;5024223;28;20352;-72
2022/10/12 10:19:02;;;;;;;;;;;;;;;;;;5010114;28;20262;-72
2022/10/12 10:21:27;;;;;;;;;;;;;;;;;;5026064;28;19913;-72
2022/10/12 10:23:52;;;;;;;;;;;;;;;;;;5031685;28;19921;-72
2022/10/12 10:26:18;;;;;;;;;;;;;;;;;;5027456;28;20420;-72
2022/10/12 10:28:43;;;;;;;;;;;;;;;;;;5010724;28;19914;-72
2022/10/12 10:31:08;;;;;;;;;;;;;;;;;;5015204;28;19914;-72
2022/10/12 10:33:33;;;;;;;;;;;;;;;;;;5019786;28;20285;-72
2022/10/12 10:35:58;;;;;;;;;;;;;;;;;;5033698;28;20358;-72
2022/10/12 10:38:23;;;;;;;;;;;;;;;;;;5035224;28;19991;-72
2022/10/12 10:40:49;;;;;;;;;;;;;;;;;;5022216;28;19959;-72
2022/10/12 10:43:14;;;;;;;;;;;;;;;;;;5014678;28;20003;-72
2022/10/12 10:45:39;;;;;;;;;;;;;;;;;;5032512;28;19917;-72
2022/10/12 10:48:04;;;;;;;;;;;;;;;;;;5031847;28;19917;-72
2022/10/12 10:50:29;;;;;;;;;;;;;;;;;;5033739;28;19913;-72
2022/10/12 10:52:55;;;;;;;;;;;;;;;;;;5034661;28;19916;-72
2022/10/12 10:55:20;;;;;;;;;;;;;;;;;;5030436;28;19953;-71
2022/10/12 10:57:45;;;;;;;;;;;;;;;;;;5033783;28;19929;-72
2022/10/12 11:00:11;;;;;;;;;;;;;;;;;;5028945;28;19913;-72
2022/10/12 11:02:36;;;;;;;;;;;;;;;;;;5034879;28;19959;-72
2022/10/12 11:05:01;;;;;;;;;;;;;;;;;;5030039;28;19918;-72
2022/10/12 11:07:26;;;;;;;;;;;;;;;;;;5033587;28;19917;-72
2022/10/12 11:09:51;;;;;;;;;;;;;;;;;;5024415;28;20357;-72
2022/10/12 11:12:16;;;;;;;;;;;;;;;;;;5034359;28;19917;-72
2022/10/12 11:14:41;;;;;;;;;;;;;;;;;;5026002;28;19917;-74
2022/10/12 11:17:06;;;;;;;;;;;;;;;;;;5033819;28;20289;-73
2022/10/12 11:19:31;;;;;;;;;;;;;;;;;;5029598;28;20377;-72
2022/10/12 11:21:57;;;;;;;;;;;;;;;;;;5033373;28;20247;-73
2022/10/12 11:24:22;;;;;;;;;;;;;;;;;;5033666;28;20380;-72
2022/10/12 11:26:47;;;;;;;;;;;;;;;;;;5034433;28;19917;-72
2022/10/12 11:29:12;;;;;;;;;;;;;;;;;;5031938;28;19961;-72
2022/10/12 11:31:38;;;;;;;;;;;;;;;;;;5027470;28;19960;-73
2022/10/12 11:34:04;;;;;;;;;;;;;;;;;;5031645;28;19917;-73
2022/10/12 11:36:29;;;;;;;;;;;;;;;;;;5034440;28;20273;-73
2022/10/12 11:38:54;;;;;;;;;;;;;;;;;;5030202;28;20366;-72
2022/10/12 11:41:19;;;;;;;;;;;;;;;;;;5033332;28;19921;-73
2022/10/12 11:43:45;;;;;;;;;;;;;;;;;;5033223;28;19955;-72
2022/10/12 11:46:10;;;;;;;;;;;;;;;;;;5028163;28;19917;-72
2022/10/12 11:48:35;;;;;;;;;;;;;;;;;;5033677;28;19909;-72
2022/10/12 11:51:00;;;;;;;;;;;;;;;;;;5032756;28;20410;-72
2022/10/12 11:53:25;;;;;;;;;;;;;;;;;;5030218;28;20001;-72
2022/10/12 11:55:50;;;;;;;;;;;;;;;;;;5033021;28;19979;-72
2022/10/12 11:58:15;;;;;;;;;;;;;;;;;;5033408;28;19909;-74
2022/10/12 12:00:40;;;;;;;;;;;;;;;;;;5026802;28;20005;-72
2022/10/12 12:03:06;;;;;;;;;;;;;;;;;;5029574;28;19913;-72
2022/10/12 12:05:31;;;;;;;;;;;;;;;;;;5028334;28;19925;-72
2022/10/12 12:07:56;;;;;;;;;;;;;;;;;;5028363;28;20386;-73
2022/10/12 12:10:21;;;;;;;;;;;;;;;;;;5026510;28;19917;-72
2022/10/12 12:12:46;;;;;;;;;;;;;;;;;;5032987;28;19920;-72
2022/10/12 12:15:11;;;;;;;;;;;;;;;;;;5032319;28;19917;-72
2022/10/12 12:17:37;;;;;;;;;;;;;;;;;;5024842;28;19913;-72
2022/10/12 12:20:02;;;;;;;;;;;;;;;;;;5028455;28;20012;-72
2022/10/12 12:22:27;;;;;;;;;;;;;;;;;;5024528;28;19953;-72
2022/10/12 12:24:53;;;;;;;;;;;;;;;;;;5016593;28;19914;-72
2022/10/12 12:27:18;;;;;;;;;;;;;;;;;;5027483;28;19913;-73
2022/10/12 12:29:43;;;;;;;;;;;;;;;;;;5032230;28;19920;-73
2022/10/12 12:32:08;;;;;;;;;;;;;;;;;;5022413;28;19917;-73
2022/10/12 12:34:33;;;;;;;;;;;;;;;;;;5029710;28;20273;-72
2022/10/12 12:36:58;;;;;;;;;;;;;;;;;;5030212;28;20366;-74
2022/10/12 12:39:23;;;;;;;;;;;;;;;;;;5025485;28;19999;-73
2022/10/12 12:41:48;;;;;;;;;;;;;;;;;;5018640;28;19920;-74
2022/10/12 12:44:13;;;;;;;;;;;;;;;;;;5026028;28;19932;-75
2022/10/12 12:46:39;;;;;;;;;;;;;;;;;;5026409;28;19916;-75
2022/10/12 12:49:04;;;;;;;;;;;;;;;;;;5026851;28;20281;-75
2022/10/12 12:51:29;;;;;;;;;;;;;;;;;;5032502;28;19909;-74
2022/10/12 12:53:54;;;;;;;;;;;;;;;;;;5031686;28;19909;-74
2022/10/12 12:56:19;;;;;;;;;;;;;;;;;;5032800;28;19916;-73
2022/10/12 12:58:44;;;;;;;;;;;;;;;;;;5031642;28;19917;-75
2022/10/12 13:01:09;;;;;;;;;;;;;;;;;;5031236;28;19987;-74
2022/10/12 13:03:35;;;;;;;;;;;;;;;;;;5024327;28;20575;-74
2022/10/12 13:06:00;;;;;;;;;;;;;;;;;;5030000;28;19947;-75
2022/10/12 13:08:25;;;;;;;;;;;;;;;;;;5023437;28;19913;-76
2022/10/12 13:10:50;;;;;;;;;;;;;;;;;;5025672;28;19970;-75
2022/10/12 13:13:15;;;;;;;;;;;;;;;;;;5031643;28;19964;-76
2022/10/12 13:15:40;;;;;;;;;;;;;;;;;;5030839;28;19921;-74
2022/10/12 13:18:05;;;;;;;;;;;;;;;;;;5026794;28;19913;-73
2022/10/12 13:20:30;;;;;;;;;;;;;;;;;;5030480;28;19913;-73
2022/10/12 13:22:56;;;;;;;;;;;;;;;;;;5030175;28;19909;-72
2022/10/12 13:25:21;;;;;;;;;;;;;;;;;;5031131;28;19917;-74
2022/10/12 13:27:47;;;;;;;;;;;;;;;;;;5032247;28;20019;-75
2022/10/12 13:30:12;;;;;;;;;;;;;;;;;;5031560;28;19921;-74
2022/10/12 13:32:37;;;;;;;;;;;;;;;;;;5032094;28;19909;-74
2022/10/12 13:35:02;;;;;;;;;;;;;;;;;;5024037;28;19917;-74
2022/10/12 13:37:27;;;;;;;;;;;;;;;;;;5032557;28;19961;-75
2022/10/12 13:39:53;;;;;;;;;;;;;;;;;;5030729;28;20023;-76
2022/10/12 13:42:18;;;;;;;;;;;;;;;;;;5030821;28;20277;-75
2022/10/12 13:44:43;;;;;;;;;;;;;;;;;;5035610;28;20312;-75
2022/10/12 13:47:08;;;;;;;;;;;;;;;;;;5036349;28;19942;-75
2022/10/12 13:49:34;;;;;;;;;;;;;;;;;;5030591;28;19913;-75
2022/10/12 13:51:59;;;;;;;;;;;;;;;;;;5036075;28;19909;-75
2022/10/12 13:54:24;;;;;;;;;;;;;;;;;;5027510;28;19913;-75
2022/10/12 13:56:49;;;;;;;;;;;;;;;;;;5036423;28;19909;-75
2022/10/12 13:59:14;;;;;;;;;;;;;;;;;;5032520;28;19919;-75
2022/10/12 14:01:39;;;;;;;;;;;;;;;;;;5026529;28;19913;-75
2022/10/12 14:04:05;;;;;;;;;;;;;;;;;;5024169;28;19918;-75
2022/10/12 14:06:30;;;;;;;;;;;;;;;;;;5030083;28;19917;-75
2022/10/12 14:08:55;;;;;;;;;;;;;;;;;;5023722;28;19913;-74
2022/10/12 14:11:20;;;;;;;;;;;;;;;;;;5033498;28;20316;-74
2022/10/12 14:13:45;;;;;;;;;;;;;;;;;;5034639;28;20408;-74
2022/10/12 14:16:10;;;;;;;;;;;;;;;;;;5027424;28;19949;-74
2022/10/12 14:18:36;;;;;;;;;;;;;;;;;;5017504;28;19913;-73
2022/10/12 14:21:01;;;;;;;;;;;;;;;;;;5020318;28;20424;-74
2022/10/12 14:23:26;;;;;;;;;;;;;;;;;;5034386;28;19971;-73
2022/10/12 14:25:54;;;;;;;;;;;;;;;;;;5033740;28;19965;-73
2022/10/12 14:28:20;;;;;;;;;;;;;;;;;;5019526;28;19914;-73
2022/10/12 14:30:45;;;;;;;;;;;;;;;;;;5030114;28;19920;-73
2022/10/12 14:33:10;;;;;;;;;;;;;;;;;;5035114;28;19909;-74
2022/10/12 14:35:35;;;;;;;;;;;;;;;;;;5029958;28;19921;-74
2022/10/12 14:38:00;;;;;;;;;;;;;;;;;;5034465;28;19913;-73
2022/10/12 14:40:25;;;;;;;;;;;;;;;;;;5025037;28;19958;-73
2022/10/12 14:42:50;;;;;;;;;;;;;;;;;;5027744;28;20284;-74
2022/10/12 14:45:15;;;;;;;;;;;;;;;;;;5029028;28;20349;-74
2022/10/12 14:47:41;;;;;;;;;;;;;;;;;;5034387;28;20399;-74
2022/10/12 14:50:07;;;;;;;;;;;;;;;;;;5022172;28;19917;-74
2022/10/12 14:52:32;;;;;;;;;;;;;;;;;;5018114;28;19917;-74
2022/10/12 14:54:58;;;;;;;;;;;;;;;;;;5023921;28;19917;-75
2022/10/12 14:57:23;;;;;;;;;;;;;;;;;;5030806;28;19921;-75
2022/10/12 14:59:48;;;;;;;;;;;;;;;;;;5034382;28;19917;-74
2022/10/12 15:02:13;;;;;;;;;;;;;;;;;;5034151;28;19920;-74
2022/10/12 15:04:38;;;;;;;;;;;;;;;;;;5034064;28;20003;-75
2022/10/12 15:07:03;;;;;;;;;;;;;;;;;;5028479;28;20349;-75
2022/10/12 15:09:29;;;;;;;;;;;;;;;;;;5026686;28;20354;-75
2022/10/12 15:11:54;;;;;;;;;;;;;;;;;;5031461;28;20400;-75
2022/10/12 15:14:19;;;;;;;;;;;;;;;;;;5033579;28;19913;-75
2022/10/12 15:16:44;;;;;;;;;;;;;;;;;;5021794;28;19933;-74
2022/10/12 15:19:09;;;;;;;;;;;;;;;;;;5014239;28;19910;-75
2022/10/12 15:21:34;;;;;;;;;;;;;;;;;;5022010;28;19920;-74
2022/10/12 15:23:59;;;;;;;;;;;;;;;;;;5030712;28;19914;-75
2022/10/12 15:26:24;;;;;;;;;;;;;;;;;;5033259;28;19924;-74
2022/10/12 15:28:49;;;;;;;;;;;;;;;;;;5030482;28;19913;-75
2022/10/12 15:31:15;;;;;;;;;;;;;;;;;;5033647;28;19935;-73
2022/10/12 15:33:40;;;;;;;;;;;;;;;;;;5033189;28;19920;-73
2022/10/12 15:36:05;;;;;;;;;;;;;;;;;;5032985;28;20346;-73
2022/10/12 15:38:30;;;;;;;;;;;;;;;;;;5026917;28;19917;-73
2022/10/12 15:40:57;;;;;;;;;;;;;;;;;;5021061;28;19921;-73
2022/10/12 15:43:22;;;;;;;;;;;;;;;;;;5015504;28;20379;-73
2022/10/12 15:45:47;;;;;;;;;;;;;;;;;;5023269;28;19924;-73
2022/10/12 15:48:12;;;;;;;;;;;;;;;;;;5008802;28;19928;-72
2022/10/12 15:50:37;;;;;;;;;;;;;;;;;;5009144;28;19940;-72
2022/10/12 15:53:02;;;;;;;;;;;;;;;;;;5014734;28;19921;-72
2022/10/12 15:55:27;;;;;;;;;;;;;;;;;;5009037;28;19913;-72
2022/10/12 15:57:52;;;;;;;;;;;;;;;;;;5023170;28;19917;-72
2022/10/12 16:00:18;;;;;;;;;;;;;;;;;;5009169;28;20296;-71
2022/10/12 16:02:43;;;;;;;;;;;;;;;;;;5022021;28;20370;-71
2022/10/12 16:05:08;;;;;;;;;;;;;;;;;;5010710;28;19956;-71
2022/10/12 16:07:33;;;;;;;;;;;;;;;;;;5010617;28;20341;-71
2022/10/12 16:09:58;;;;;;;;;;;;;;;;;;5021071;28;20365;-71
2022/10/12 16:12:23;;;;;;;;;;;;;;;;;;5010611;28;19957;-71
2022/10/12 16:14:48;;;;;;;;;;;;;;;;;;5008975;28;19972;-71
2022/10/12 16:17:13;;;;;;;;;;;;;;;;;;5013179;28;19971;-71
2022/10/12 16:19:39;;;;;;;;;;;;;;;;;;5007600;28;19917;-71
2022/10/12 16:22:04;;;;;;;;;;;;;;;;;;5006295;28;19918;-71
2022/10/12 16:24:29;;;;;;;;;;;;;;;;;;5006749;28;20391;-73
2022/10/12 16:26:54;;;;;;;;;;;;;;;;;;5004895;28;19922;-73
2022/10/12 16:29:19;;;;;;;;;;;;;;;;;;4998458;28;19918;-71
2022/10/12 16:31:44;;;;;;;;;;;;;;;;;;5009021;28;19918;-73